createdAt,value
2017-10-22T00:00:44.656Z,11.10
2017-10-22T00:03:11.679Z,11.14
2017-10-22T00:05:37.762Z,11.33
2017-10-22T00:08:03.914Z,11.44
2017-10-22T00:10:29.959Z,11.50
2017-10-22T00:12:56.035Z,11.57
2017-10-22T00:15:22.222Z,11.56
2017-10-22T00:17:48.337Z,11.68
2017-10-22T00:20:14.718Z,11.56
2017-10-22T00:22:40.815Z,11.43
2017-10-22T00:25:06.916Z,11.63
2017-10-22T00:27:33.032Z,11.72
2017-10-22T00:29:59.095Z,11.64
2017-10-22T00:32:25.466Z,11.57
2017-10-22T00:34:51.517Z,11.52
2017-10-22T00:37:17.560Z,11.41
2017-10-22T00:39:43.646Z,11.39
2017-10-22T00:42:09.733Z,11.33
2017-10-22T00:44:35.823Z,11.17
2017-10-22T00:47:01.891Z,11.22
2017-10-22T00:49:27.998Z,11.15
2017-10-22T00:51:54.205Z,11.06
2017-10-22T00:54:20.311Z,11.03
2017-10-22T00:56:46.418Z,10.98
2017-10-22T00:59:12.554Z,10.98
2017-10-22T01:01:38.651Z,10.95
2017-10-22T01:04:04.758Z,10.85
2017-10-22T01:06:30.860Z,10.83
2017-10-22T01:08:57.354Z,10.76
2017-10-22T01:11:23.428Z,10.69
2017-10-22T01:13:49.528Z,10.65
2017-10-22T01:16:15.638Z,10.65
2017-10-22T01:18:41.713Z,10.69
2017-10-22T01:21:08.035Z,10.64
2017-10-22T01:23:34.087Z,10.63
2017-10-22T01:26:00.111Z,10.59
2017-10-22T01:28:26.220Z,10.58
2017-10-22T01:30:52.270Z,10.58
2017-10-22T01:33:18.603Z,10.55
2017-10-22T01:35:44.639Z,10.54
2017-10-22T01:38:10.686Z,10.50
2017-10-22T01:40:36.761Z,10.54
2017-10-22T01:43:02.831Z,10.46
2017-10-22T01:45:28.935Z,10.46
2017-10-22T01:47:54.983Z,10.40
2017-10-22T01:50:21.136Z,10.43
2017-10-22T01:52:47.207Z,10.41
2017-10-22T01:55:13.265Z,10.42
2017-10-22T01:57:39.336Z,10.44
2017-10-22T02:00:05.422Z,10.47
2017-10-22T02:02:31.538Z,10.51
2017-10-22T02:04:57.632Z,10.49
2017-10-22T02:07:23.727Z,10.51
2017-10-22T02:09:49.803Z,10.44
2017-10-22T02:12:15.839Z,10.46
2017-10-22T02:14:41.998Z,10.45
2017-10-22T02:17:08.188Z,10.50
2017-10-22T02:19:34.323Z,10.53
2017-10-22T02:22:00.415Z,10.53
2017-10-22T02:24:26.508Z,10.55
2017-10-22T02:26:52.627Z,10.56
2017-10-22T02:29:18.738Z,10.54
2017-10-22T02:31:44.818Z,10.52
2017-10-22T02:34:10.975Z,10.53
2017-10-22T02:36:37.102Z,10.51
2017-10-22T02:39:03.152Z,10.49
2017-10-22T02:41:29.215Z,10.51
2017-10-22T02:43:55.257Z,10.46
2017-10-22T02:46:21.369Z,10.42
2017-10-22T02:48:47.465Z,10.40
2017-10-22T02:51:13.587Z,10.38
2017-10-22T02:53:39.680Z,10.36
2017-10-22T02:56:05.765Z,10.32
2017-10-22T02:58:31.889Z,10.33
2017-10-22T03:00:57.958Z,10.30
2017-10-22T03:03:24.171Z,10.36
2017-10-22T03:05:50.217Z,10.32
2017-10-22T03:08:16.302Z,10.27
2017-10-22T03:10:42.427Z,10.26
2017-10-22T03:13:08.540Z,10.26
2017-10-22T03:15:34.719Z,10.29
2017-10-22T03:18:00.868Z,10.27
2017-10-22T03:20:26.972Z,10.23
2017-10-22T03:22:53.088Z,10.28
2017-10-22T03:25:19.150Z,10.27
2017-10-22T03:27:45.226Z,10.22
2017-10-22T03:30:11.320Z,10.16
2017-10-22T03:32:37.400Z,10.13
2017-10-22T03:35:03.788Z,10.18
2017-10-22T03:37:29.872Z,10.21
2017-10-22T03:39:55.956Z,10.27
2017-10-22T03:42:22.063Z,10.26
2017-10-22T03:44:48.157Z,10.27
2017-10-22T03:47:14.340Z,10.23
2017-10-22T03:49:40.395Z,10.28
2017-10-22T03:52:06.522Z,10.23
2017-10-22T03:54:32.718Z,10.23
2017-10-22T03:56:58.863Z,10.23
2017-10-22T03:59:24.947Z,10.31
2017-10-22T04:01:51.009Z,10.27
2017-10-22T04:04:17.119Z,10.23
2017-10-22T04:06:43.214Z,10.21
2017-10-22T04:09:09.299Z,10.20
2017-10-22T04:11:35.395Z,10.18
2017-10-22T04:14:01.487Z,10.16
2017-10-22T04:16:27.575Z,10.13
2017-10-22T04:18:53.663Z,10.19
2017-10-22T04:21:19.747Z,10.22
2017-10-22T04:23:45.881Z,10.19
2017-10-22T04:26:11.942Z,10.21
2017-10-22T04:28:38.015Z,10.11
2017-10-22T04:31:04.115Z,10.10
2017-10-22T04:33:30.194Z,10.16
2017-10-22T04:35:56.336Z,10.14
2017-10-22T04:38:22.436Z,10.19
2017-10-22T04:40:48.503Z,10.11
2017-10-22T04:43:14.523Z,10.17
2017-10-22T04:45:40.591Z,10.29
2017-10-22T04:48:06.998Z,10.28
2017-10-22T04:50:33.123Z,10.17
2017-10-22T04:52:59.217Z,10.19
2017-10-22T04:55:25.286Z,10.26
2017-10-22T04:57:51.367Z,10.30
2017-10-22T05:00:17.489Z,10.32
2017-10-22T05:02:43.553Z,10.23
2017-10-22T05:05:09.616Z,10.18
2017-10-22T05:07:35.714Z,10.22
2017-10-22T05:10:01.786Z,10.16
2017-10-22T05:12:27.891Z,10.21
2017-10-22T05:14:53.994Z,10.22
2017-10-22T05:17:20.077Z,10.13
2017-10-22T05:19:46.089Z,10.09
2017-10-22T05:22:12.159Z,10.10
2017-10-22T05:24:38.622Z,10.14
2017-10-22T05:27:04.719Z,10.10
2017-10-22T05:29:30.886Z,10.06
2017-10-22T05:31:56.966Z,10.08
2017-10-22T05:34:23.072Z,10.02
2017-10-22T05:36:49.199Z,9.99
2017-10-22T05:39:15.290Z,9.96
2017-10-22T05:41:41.401Z,9.99
2017-10-22T05:44:07.543Z,9.96
2017-10-22T05:46:33.613Z,9.89
2017-10-22T05:48:59.738Z,9.93
2017-10-22T05:51:25.784Z,9.87
2017-10-22T05:53:51.872Z,9.95
2017-10-22T05:56:17.970Z,9.96
2017-10-22T05:58:44.105Z,9.89
2017-10-22T06:01:10.285Z,9.87
2017-10-22T06:03:36.375Z,10.03
2017-10-22T06:06:02.478Z,10.01
2017-10-22T06:08:28.607Z,10.01
2017-10-22T06:10:54.673Z,9.99
2017-10-22T06:13:20.774Z,10.04
2017-10-22T06:15:46.866Z,10.01
2017-10-22T06:18:13.004Z,9.98
2017-10-22T06:20:39.449Z,9.95
2017-10-22T06:23:05.526Z,9.99
2017-10-22T06:25:31.600Z,9.86
2017-10-22T06:27:57.759Z,9.68
2017-10-22T06:30:23.850Z,9.48
2017-10-22T06:32:49.962Z,9.62
2017-10-22T06:35:16.031Z,9.73
2017-10-22T06:37:42.120Z,9.71
2017-10-22T06:40:08.194Z,9.74
2017-10-22T06:42:34.223Z,9.69
2017-10-22T06:45:00.777Z,9.68
2017-10-22T06:47:26.867Z,9.66
2017-10-22T06:49:52.950Z,9.84
2017-10-22T06:52:19.083Z,9.63
2017-10-22T06:54:45.192Z,9.60
2017-10-22T06:57:11.282Z,9.63
2017-10-22T06:59:37.513Z,9.61
2017-10-22T07:02:03.562Z,9.66
2017-10-22T07:04:29.951Z,9.65
2017-10-22T07:06:55.999Z,9.66
2017-10-22T07:09:22.167Z,9.72
2017-10-22T07:11:48.272Z,9.76
2017-10-22T07:14:14.341Z,9.70
2017-10-22T07:16:40.441Z,9.77
2017-10-22T07:19:06.586Z,9.85
2017-10-22T07:21:32.671Z,9.90
2017-10-22T07:23:58.785Z,9.94
2017-10-22T07:26:24.868Z,9.98
2017-10-22T07:28:51.002Z,10.06
2017-10-22T07:31:17.073Z,10.05
2017-10-22T07:33:43.217Z,10.14
2017-10-22T07:36:09.371Z,10.17
2017-10-22T07:38:35.447Z,10.15
2017-10-22T07:41:01.613Z,10.06
2017-10-22T07:43:27.796Z,10.19
2017-10-22T07:45:53.858Z,10.17
2017-10-22T07:48:19.955Z,10.18
2017-10-22T07:50:46.011Z,10.33
2017-10-22T07:53:12.119Z,10.29
2017-10-22T07:55:38.206Z,10.29
2017-10-22T07:58:04.306Z,10.34
2017-10-22T08:00:30.399Z,10.40
2017-10-22T08:02:56.478Z,10.42
2017-10-22T08:05:22.648Z,10.51
2017-10-22T08:07:48.862Z,10.52
2017-10-22T08:10:15.021Z,10.62
2017-10-22T08:12:41.070Z,10.63
2017-10-22T08:15:07.190Z,10.65
2017-10-22T08:17:33.285Z,10.61
2017-10-22T08:19:59.391Z,10.55
2017-10-22T08:22:25.472Z,10.54
2017-10-22T08:24:51.579Z,10.41
2017-10-22T08:27:17.664Z,10.38
2017-10-22T08:29:43.775Z,10.36
2017-10-22T08:32:09.874Z,10.42
2017-10-22T08:34:36.306Z,10.52
2017-10-22T08:37:02.405Z,10.58
2017-10-22T08:39:28.507Z,10.64
2017-10-22T08:41:54.639Z,10.72
2017-10-22T08:44:20.734Z,10.73
2017-10-22T08:46:46.771Z,10.83
2017-10-22T08:49:12.910Z,10.92
2017-10-22T08:51:38.914Z,11.05
2017-10-22T08:54:04.964Z,10.98
2017-10-22T08:56:31.090Z,10.96
2017-10-22T08:58:57.166Z,11.06
2017-10-22T09:01:23.564Z,11.06
2017-10-22T09:03:50.120Z,11.07
2017-10-22T09:06:16.233Z,10.91
2017-10-22T09:08:42.378Z,10.80
2017-10-22T09:11:08.419Z,10.70
2017-10-22T09:13:34.514Z,10.69
2017-10-22T09:16:00.626Z,10.72
2017-10-22T09:18:26.807Z,10.74
2017-10-22T09:20:52.978Z,10.68
2017-10-22T09:23:19.007Z,10.62
2017-10-22T09:25:45.126Z,10.58
2017-10-22T09:28:11.243Z,10.56
2017-10-22T09:30:37.370Z,10.63
2017-10-22T09:33:03.506Z,10.55
2017-10-22T09:35:29.596Z,10.58
2017-10-22T09:37:55.699Z,10.66
2017-10-22T09:40:21.738Z,10.75
2017-10-22T09:42:47.835Z,10.80
2017-10-22T09:45:15.369Z,10.89
2017-10-22T09:47:41.473Z,10.85
2017-10-22T09:50:07.583Z,10.74
2017-10-22T09:52:33.694Z,10.70
2017-10-22T09:54:59.817Z,10.66
2017-10-22T09:57:25.883Z,10.69
2017-10-22T09:59:51.916Z,10.58
2017-10-22T10:02:18.033Z,10.49
2017-10-22T10:04:44.147Z,10.59
2017-10-22T10:07:10.212Z,10.63
2017-10-22T10:09:36.414Z,10.75
2017-10-22T10:12:02.563Z,10.75
2017-10-22T10:14:28.632Z,10.88
2017-10-22T10:16:54.726Z,10.88
2017-10-22T10:19:20.851Z,10.90
2017-10-22T10:21:47.012Z,10.99
2017-10-22T10:24:13.095Z,10.96
2017-10-22T10:26:39.291Z,10.93
2017-10-22T10:29:05.386Z,11.01
2017-10-22T10:31:31.506Z,10.98
2017-10-22T10:33:57.594Z,10.91
2017-10-22T10:36:23.670Z,10.89
2017-10-22T10:38:49.848Z,10.80
2017-10-22T10:41:15.901Z,10.83
2017-10-22T10:43:42.376Z,10.90
2017-10-22T10:46:08.543Z,11.18
2017-10-22T10:48:34.726Z,11.36
2017-10-22T10:51:02.802Z,11.22
2017-10-22T10:53:29.098Z,11.10
2017-10-22T10:55:55.161Z,11.15
2017-10-22T10:58:21.278Z,11.01
2017-10-22T11:00:47.406Z,10.92
2017-10-22T11:03:13.498Z,10.97
2017-10-22T11:05:39.553Z,11.03
2017-10-22T11:08:05.659Z,11.05
2017-10-22T11:10:31.720Z,11.10
2017-10-22T11:12:57.771Z,11.12
2017-10-22T11:15:23.867Z,10.95
2017-10-22T11:17:49.990Z,11.00
2017-10-22T11:20:16.062Z,11.04
2017-10-22T11:22:42.178Z,11.03
2017-10-22T11:25:08.273Z,10.98
2017-10-22T11:27:34.379Z,10.81
2017-10-22T11:30:00.443Z,10.98
2017-10-22T11:32:26.530Z,11.18
2017-10-22T11:34:52.620Z,11.32
2017-10-22T11:37:19.710Z,11.39
2017-10-22T11:39:45.798Z,11.30
2017-10-22T11:42:11.924Z,11.17
2017-10-22T11:44:37.994Z,11.15
2017-10-22T11:47:04.140Z,11.30
2017-10-22T11:49:30.270Z,11.34
2017-10-22T11:51:56.349Z,11.60
2017-10-22T11:54:22.454Z,12.23
2017-10-22T11:56:48.540Z,12.53
2017-10-22T11:59:14.726Z,12.45
2017-10-22T12:01:40.902Z,12.55
2017-10-22T12:04:07.025Z,12.92
2017-10-22T12:06:33.101Z,13.02
2017-10-22T12:08:59.201Z,12.77
2017-10-22T12:11:25.299Z,12.39
2017-10-22T12:13:51.402Z,12.33
2017-10-22T12:16:17.513Z,11.99
2017-10-22T12:18:43.618Z,11.73
2017-10-22T12:21:09.709Z,11.72
2017-10-22T12:23:35.856Z,11.77
2017-10-22T12:26:01.995Z,11.62
2017-10-22T12:28:28.135Z,11.69
2017-10-22T12:30:54.241Z,11.57
2017-10-22T12:33:20.382Z,12.28
2017-10-22T12:35:46.472Z,12.09
2017-10-22T12:38:12.566Z,11.70
2017-10-22T12:40:38.750Z,11.56
2017-10-22T12:43:04.822Z,11.48
2017-10-22T12:45:30.892Z,11.54
2017-10-22T12:47:57.054Z,11.50
2017-10-22T12:50:23.186Z,11.47
2017-10-22T12:52:49.295Z,11.55
2017-10-22T12:55:15.467Z,11.48
2017-10-22T12:57:41.550Z,11.45
2017-10-22T13:00:07.660Z,11.51
2017-10-22T13:02:33.746Z,11.44
2017-10-22T13:04:59.807Z,11.26
2017-10-22T13:07:25.915Z,11.24
2017-10-22T13:09:52.010Z,11.15
2017-10-22T13:12:18.194Z,11.11
2017-10-22T13:14:44.298Z,11.12
2017-10-22T13:17:10.375Z,11.14
2017-10-22T13:19:36.454Z,11.07
2017-10-22T13:22:02.608Z,11.06
2017-10-22T13:24:28.686Z,11.03
2017-10-22T13:26:54.803Z,11.03
2017-10-22T13:29:21.306Z,11.17
2017-10-22T13:31:47.396Z,11.08
2017-10-22T13:34:13.467Z,11.05
2017-10-22T13:36:39.576Z,11.03
2017-10-22T13:39:05.762Z,11.08
2017-10-22T13:41:31.901Z,10.89
2017-10-22T13:43:58.044Z,10.86
2017-10-22T13:46:24.146Z,10.81
2017-10-22T13:48:50.262Z,10.75
2017-10-22T13:51:16.416Z,10.69
2017-10-22T13:53:42.498Z,10.79
2017-10-22T13:56:08.594Z,10.90
2017-10-22T13:58:34.685Z,10.93
2017-10-22T14:01:00.790Z,10.90
2017-10-22T14:03:26.886Z,10.81
2017-10-22T14:05:53.011Z,10.85
2017-10-22T14:08:19.098Z,10.90
2017-10-22T14:10:45.174Z,10.86
2017-10-22T14:13:11.254Z,10.86
2017-10-22T14:15:37.426Z,10.85
2017-10-22T14:18:03.507Z,10.84
2017-10-22T14:20:29.618Z,10.82
2017-10-22T14:22:55.661Z,10.93
2017-10-22T14:25:21.791Z,11.00
2017-10-22T14:27:47.904Z,11.05
2017-10-22T14:30:14.052Z,11.07
2017-10-22T14:32:40.221Z,11.12
2017-10-22T14:35:06.380Z,11.15
2017-10-22T14:37:32.487Z,11.49
2017-10-22T14:39:58.573Z,11.54
2017-10-22T14:42:24.714Z,11.61
2017-10-22T14:44:50.815Z,11.43
2017-10-22T14:47:16.946Z,11.34
2017-10-22T14:49:43.080Z,11.31
2017-10-22T14:52:09.173Z,11.38
2017-10-22T14:54:35.360Z,11.40
2017-10-22T14:57:01.454Z,11.35
2017-10-22T14:59:27.527Z,11.35
2017-10-22T15:01:53.674Z,11.31
2017-10-22T15:04:19.815Z,11.29
2017-10-22T15:06:45.898Z,11.29
2017-10-22T15:09:11.983Z,11.18
2017-10-22T15:11:38.196Z,11.15
2017-10-22T15:14:04.370Z,11.26
2017-10-22T15:16:30.507Z,11.21
2017-10-22T15:18:56.691Z,11.17
2017-10-22T15:21:22.857Z,11.14
2017-10-22T15:23:49.077Z,11.09
2017-10-22T15:26:15.252Z,11.04
2017-10-22T15:28:41.405Z,11.08
2017-10-22T15:31:07.594Z,10.99
2017-10-22T15:33:33.736Z,10.96
2017-10-22T15:35:59.897Z,10.91
2017-10-22T15:38:26.546Z,10.83
2017-10-22T15:40:52.649Z,10.64
2017-10-22T15:43:18.755Z,10.52
2017-10-22T15:45:44.919Z,10.69
2017-10-22T15:48:11.010Z,10.76
2017-10-22T15:50:37.099Z,10.70
2017-10-22T15:53:03.251Z,10.48
2017-10-22T15:55:29.380Z,10.43
2017-10-22T15:57:55.528Z,10.45
2017-10-22T16:00:21.646Z,10.43
2017-10-22T16:02:47.816Z,10.47
2017-10-22T16:05:13.949Z,10.08
2017-10-22T16:07:40.097Z,10.05
2017-10-22T16:10:06.280Z,9.98
2017-10-22T16:12:32.429Z,9.93
2017-10-22T16:17:24.524Z,9.90
2017-10-22T16:19:50.707Z,9.90
2017-10-22T16:22:16.914Z,10.01
2017-10-22T16:24:43.060Z,10.03
2017-10-22T16:27:09.314Z,10.11
2017-10-22T16:29:35.557Z,10.04
2017-10-22T16:32:01.768Z,9.97
2017-10-22T16:34:27.947Z,9.87
2017-10-22T16:36:54.146Z,10.14
2017-10-22T16:39:20.316Z,10.20
2017-10-22T16:41:46.453Z,10.11
2017-10-22T16:44:12.602Z,9.97
2017-10-22T16:46:38.753Z,9.73
2017-10-22T16:49:04.900Z,9.15
2017-10-22T16:51:31.256Z,8.86
2017-10-22T16:53:57.776Z,8.85
2017-10-22T16:56:23.997Z,8.81
2017-10-22T16:58:50.211Z,8.84
2017-10-22T17:01:16.373Z,8.91
2017-10-22T17:03:42.480Z,8.81
2017-10-22T17:06:08.604Z,8.81
2017-10-22T17:08:34.917Z,8.84
2017-10-22T17:11:12.250Z,8.81
2017-10-22T17:13:38.427Z,8.82
2017-10-22T17:16:04.604Z,8.84
2017-10-22T17:18:30.865Z,8.89
2017-10-22T17:20:57.118Z,8.87
2017-10-22T17:23:23.389Z,8.94
2017-10-22T17:25:49.638Z,8.93
2017-10-22T17:28:15.946Z,8.86
2017-10-22T17:30:42.317Z,8.79
2017-10-22T17:33:08.523Z,8.74
2017-10-22T17:35:34.877Z,8.66
2017-10-22T17:38:01.137Z,8.68
2017-10-22T17:40:27.364Z,8.70
2017-10-22T17:42:53.647Z,8.70
2017-10-22T17:45:19.919Z,8.70
2017-10-22T17:47:46.106Z,8.65
2017-10-22T17:50:12.309Z,8.59
2017-10-22T17:52:38.560Z,8.53
2017-10-22T17:55:04.821Z,8.66
2017-10-22T17:57:31.071Z,8.65
2017-10-22T17:59:57.476Z,8.70
2017-10-22T18:02:23.826Z,8.70
2017-10-22T18:04:50.076Z,8.66
2017-10-22T18:07:16.385Z,8.65
2017-10-22T18:09:42.737Z,8.63
2017-10-22T18:12:09.070Z,8.67
2017-10-22T18:14:35.310Z,8.66
2017-10-22T18:17:01.606Z,8.66
2017-10-22T18:19:27.969Z,8.66
2017-10-22T18:21:54.222Z,8.73
2017-10-22T18:24:22.385Z,8.70
2017-10-22T18:26:48.608Z,8.72
2017-10-22T18:29:14.873Z,8.64
2017-10-22T18:31:41.198Z,8.56
2017-10-22T18:34:07.532Z,8.49
2017-10-22T18:36:33.897Z,8.42
2017-10-22T18:39:00.286Z,8.40
2017-10-22T18:41:26.591Z,8.37
2017-10-22T18:43:52.998Z,8.41
2017-10-22T18:46:19.343Z,8.47
2017-10-22T18:48:45.634Z,8.42
2017-10-22T18:51:11.967Z,8.37
2017-10-22T18:53:38.260Z,8.37
2017-10-22T18:56:11.729Z,8.37
2017-10-22T18:58:38.104Z,8.31
2017-10-22T19:01:04.410Z,8.32
2017-10-22T19:03:30.783Z,8.28
2017-10-22T19:05:57.181Z,8.25
2017-10-22T19:08:23.516Z,8.25
2017-10-22T19:10:49.867Z,8.27
2017-10-22T19:13:16.515Z,8.27
2017-10-22T19:15:42.857Z,8.24
2017-10-22T19:18:09.239Z,8.34
2017-10-22T19:20:35.642Z,8.39
2017-10-22T19:23:02.016Z,8.32
2017-10-22T19:25:29.929Z,8.32
2017-10-22T19:27:56.213Z,8.25
2017-10-22T19:30:22.555Z,8.36
2017-10-22T19:32:48.896Z,8.35
2017-10-22T19:35:15.249Z,8.36
2017-10-22T19:37:41.574Z,8.38
2017-10-22T19:40:07.944Z,8.40
2017-10-22T19:42:34.367Z,8.35
2017-10-22T19:45:00.757Z,8.33
2017-10-22T19:47:27.160Z,8.34
2017-10-22T19:49:53.376Z,8.30
2017-10-22T19:52:19.742Z,8.27
2017-10-22T19:54:45.955Z,8.20
2017-10-22T19:57:12.272Z,8.24
2017-10-22T19:59:38.592Z,8.28
2017-10-22T20:02:04.973Z,8.20
2017-10-22T20:04:31.269Z,8.25
2017-10-22T20:06:57.467Z,8.30
2017-10-22T20:09:23.634Z,8.32
2017-10-22T20:11:49.863Z,8.37
2017-10-22T20:14:16.067Z,8.33
2017-10-22T20:16:42.232Z,8.33
2017-10-22T20:19:08.389Z,8.30
2017-10-22T20:21:34.544Z,8.32
2017-10-22T20:24:00.639Z,8.32
2017-10-22T20:26:26.740Z,8.33
2017-10-22T20:28:52.902Z,8.37
2017-10-22T20:31:18.964Z,8.33
2017-10-22T20:33:45.139Z,8.38
2017-10-22T20:36:11.242Z,8.36
2017-10-22T20:38:37.359Z,8.36
2017-10-22T20:41:03.499Z,8.33
2017-10-22T20:43:29.602Z,8.36
2017-10-22T20:45:55.735Z,8.34
2017-10-22T20:48:21.825Z,8.34
2017-10-22T20:50:47.933Z,8.30
2017-10-22T20:53:14.028Z,8.28
2017-10-22T20:55:40.095Z,8.28
2017-10-22T20:58:06.471Z,8.25
2017-10-22T21:00:32.521Z,8.23
2017-10-22T21:02:58.590Z,8.25
2017-10-22T21:05:24.730Z,8.21
2017-10-22T21:07:50.807Z,8.22
2017-10-22T21:10:17.810Z,8.22
2017-10-22T21:12:43.853Z,8.20
2017-10-22T21:15:09.933Z,8.12
2017-10-22T21:17:36.090Z,7.95
2017-10-22T21:20:02.163Z,8.13
2017-10-22T21:22:28.256Z,8.21
2017-10-22T21:24:54.355Z,8.23
2017-10-22T21:27:20.430Z,8.19
2017-10-22T21:29:46.521Z,8.14
2017-10-22T21:32:12.593Z,8.11
2017-10-22T21:34:38.707Z,8.01
2017-10-22T21:37:04.814Z,7.95
2017-10-22T21:39:30.900Z,7.94
2017-10-22T21:41:57.078Z,7.93
2017-10-22T21:44:23.159Z,7.94
2017-10-22T21:46:49.243Z,8.00
2017-10-22T21:49:15.320Z,8.01
2017-10-22T21:51:41.347Z,8.07
2017-10-22T21:54:07.432Z,8.05
2017-10-22T21:56:33.534Z,8.08
2017-10-22T21:58:59.726Z,8.11
2017-10-22T22:01:25.855Z,8.07
2017-10-22T22:03:51.937Z,8.07
2017-10-22T22:06:24.847Z,8.06
2017-10-22T22:08:50.944Z,8.08
2017-10-22T22:11:17.047Z,8.02
2017-10-22T22:13:43.129Z,8.06
2017-10-22T22:16:09.206Z,8.07
2017-10-22T22:18:35.291Z,8.07
2017-10-22T22:21:01.355Z,8.08
2017-10-22T22:23:27.443Z,8.07
2017-10-22T22:25:53.568Z,8.06
2017-10-22T22:28:19.642Z,8.11
2017-10-22T22:30:45.758Z,8.15
2017-10-22T22:33:11.826Z,8.19
2017-10-22T22:35:37.967Z,8.21
2017-10-22T22:38:04.069Z,8.13
2017-10-22T22:40:30.162Z,8.12
2017-10-22T22:42:56.270Z,8.15
2017-10-22T22:45:22.330Z,8.10
2017-10-22T22:47:48.451Z,8.07
2017-10-22T22:50:14.551Z,8.03
2017-10-22T22:52:40.635Z,8.02
2017-10-22T22:55:06.763Z,8.07
2017-10-22T22:57:32.874Z,8.07
2017-10-22T22:59:58.986Z,8.19
2017-10-22T23:02:25.061Z,8.19
2017-10-22T23:04:51.132Z,8.13
2017-10-22T23:07:17.259Z,8.21
2017-10-22T23:09:43.327Z,8.10
2017-10-22T23:12:09.442Z,8.15
2017-10-22T23:14:35.598Z,8.23
2017-10-22T23:17:01.687Z,8.17
2017-10-22T23:19:27.773Z,8.13
2017-10-22T23:21:53.838Z,8.19
2017-10-22T23:24:20.026Z,8.21
2017-10-22T23:26:46.103Z,8.11
2017-10-22T23:29:12.167Z,7.92
2017-10-22T23:31:38.254Z,8.02
2017-10-22T23:34:04.322Z,8.04
2017-10-22T23:36:30.426Z,8.16
2017-10-22T23:38:56.470Z,8.04
2017-10-22T23:41:22.538Z,7.92
2017-10-22T23:43:48.645Z,7.96
2017-10-22T23:46:14.722Z,8.06
2017-10-22T23:48:40.782Z,7.97
2017-10-22T23:51:06.831Z,8.20
2017-10-22T23:53:32.916Z,8.17
2017-10-22T23:55:59.012Z,8.17
2017-10-22T23:58:25.082Z,8.25
